Tripoli, Lebanon

10:44 AM EEST on September 18, 2014 (GMT +0300)
Beirut International | Change Station
CLOSE
Current Station
Airport
Location: Beirut,
Elevation: 62 ft
Nearby Weather Stations

Elev 62 ft 33.82 °N, 35.49 °E | Updated 44 minutes ago

Mostly Cloudy
Mostly Cloudy
84 °F
Feels Like 87 °F
N
12
Wind Variable Wind from SW

Today
High -- | Low -- °F
--% Chance of Precip.
Yesterday
High -- | Low -- °F
Precip. -- in
6:21 AM 6:39 PM
Waning Crescent, 29% visible
Pressure 29.92 in
Visibility 6.2 miles
Clouds Mostly Cloudy 2600 ft
Heat Index 87 °F
Dew Point 66 °F
Humidity 55%
Rainfall 0.00 in
Snow Depth Not available.
UV 3 out of 12
Pollen Not available.
Air Quality Not available.
Flu Activity Not available.
METAR OLBA 180700Z 23010KT 9999 BKN026 29/19 Q1013

More Conditions Fewer Conditions

Pressure 29.92 in
Visibility 6.2 miles
Clouds Mostly Cloudy 2600 ft
Heat Index 87 °F
Dew Point 66 °F
Humidity 55%
Rainfall 0.00 in
Snow Depth Not available.
UV 3 out of 12
Pollen Not available.
Air Quality Not available.
Flu Activity Not available.
METAR OLBA 180700Z 23010KT 9999 BKN026 29/19 Q1013

More Conditions Fewer Conditions

10-Day Weather Forecast

Almanac

Astronomy

Sep. 18, 2014 Rise Set
Actual Time 6:21 AM EEST 6:39 PM EEST
Civil Twilight 5:56 AM EEST 7:04 PM EEST
Nautical Twilight 5:27 AM EEST 7:34 PM EEST
Astronomical Twilight 4:57 AM EEST 8:04 PM EEST
Moon 1:05 AM EEST 3:07 PM EEST
Length of Visible Light 13h 08m
Length of Day
12h 17m
Tomorrow will be 2m 8s shorter.
Waning Crescent, 29% of the Moon is Illuminated
Today
Waning Crescent
Sep 24
New
Oct 1
First Quarter
Oct 8
Full
Oct 15
Last Quarter

Yesterday's Extremes

Country Highs Country Lows

Community

WunderPhotos

Upload Photos

1,754,299 photos uploaded!

Nearby

Snow Depth

Not available.

Earthquake Activity

City Distance Mag. Time & Date
No recent earthquake activity has been reported nearby.
Minimum magnitude displayed is 2.5.

Coastal Water Temperatures

Place Temperature
No Stations Reporting

Nearby Weather Stations